Time;durP1;ratioP1;P1;durP2;ratioP2;P2;SDS_P1;SDS_P2;PMS_P1;PMS_P2;Temp;Humidity;BMP_temperature;BMP_pressure;BME280_temperature;BME280_humidity;BME280_pressure;Samples;Min_cycle;Max_cycle;Signal;HPM_P1;HPM_P2
2021/03/06 00:00:06;;;;;;;5.97;5.43;;;;;;;;;;6224157;23;20178;-84
2021/03/06 00:02:32;;;;;;;8.85;5.05;;;;;;;;;;6226441;23;20218;-81
2021/03/06 00:04:59;;;;;;;8.52;5.85;;;;;;;;;;6231095;23;20166;-83
2021/03/06 00:07:27;;;;;;;6.43;4.78;;;;;;;;;;6230487;23;20220;-82
2021/03/06 00:09:54;;;;;;;7.28;4.72;;;;;;;;;;6240662;23;20146;-83
2021/03/06 00:12:20;;;;;;;4.45;4.05;;;;;;;;;;6244195;23;20131;-82
2021/03/06 00:14:46;;;;;;;5.22;3.80;;;;;;;;;;6244029;23;20149;-83
2021/03/06 00:17:12;;;;;;;4.43;3.97;;;;;;;;;;6238053;23;20165;-83
2021/03/06 00:19:38;;;;;;;4.88;4.15;;;;;;;;;;6223077;23;20139;-83
2021/03/06 00:22:04;;;;;;;8.90;5.80;;;;;;;;;;6221060;23;20237;-84
2021/03/06 00:24:31;;;;;;;6.55;4.60;;;;;;;;;;6223632;23;20238;-82
2021/03/06 00:27:00;;;;;;;6.20;5.60;;;;;;;;;;6260677;23;20151;-82
2021/03/06 00:29:27;;;;;;;6.43;4.13;;;;;;;;;;6233684;23;20151;-81
2021/03/06 00:31:53;;;;;;;9.07;5.22;;;;;;;;;;6232796;23;20135;-81
2021/03/06 00:34:39;;;;;;;8.30;4.65;;;;;;;;;;6233455;23;20170;-82
2021/03/06 00:37:05;;;;;;;4.85;3.90;;;;;;;;;;6223585;23;20137;-82
2021/03/06 00:39:31;;;;;;;6.65;5.10;;;;;;;;;;6220929;23;20135;-82
2021/03/06 00:41:57;;;;;;;6.60;4.82;;;;;;;;;;6220878;23;20183;-84
2021/03/06 00:44:23;;;;;;;5.22;4.72;;;;;;;;;;6221339;23;20252;-83
2021/03/06 00:46:49;;;;;;;13.57;4.78;;;;;;;;;;6219241;23;20492;-82
2021/03/06 00:49:29;;;;;;;;;;;;;;;;;;;;;
2021/03/06 00:51:56;;;;;;;3.80;3.50;;;;;;;;;;6222639;23;20162;-83
2021/03/06 00:54:23;;;;;;;5.25;4.05;;;;;;;;;;6223038;23;20174;-84
2021/03/06 00:56:52;;;;;;;5.70;3.95;;;;;;;;;;6222400;23;20292;-83
2021/03/06 00:59:23;;;;;;;5.38;4.90;;;;;;;;;;6222295;23;20147;-83
2021/03/06 01:01:50;;;;;;;8.73;5.53;;;;;;;;;;6223510;23;20171;-83
2021/03/06 01:04:17;;;;;;;6.93;4.47;;;;;;;;;;6220964;23;20514;-83
2021/03/06 01:06:43;;;;;;;5.70;4.88;;;;;;;;;;6220558;23;20165;-83
2021/03/06 01:09:09;;;;;;;5.88;5.47;;;;;;;;;;6220658;23;20138;-82
2021/03/06 01:11:35;;;;;;;9.65;6.38;;;;;;;;;;6218149;23;20557;-82
2021/03/06 01:14:01;;;;;;;5.30;4.63;;;;;;;;;;6219283;23;20628;-83
2021/03/06 01:16:27;;;;;;;6.28;5.20;;;;;;;;;;6219646;23;20158;-83
2021/03/06 01:18:53;;;;;;;7.50;5.55;;;;;;;;;;6223138;23;20205;-84
2021/03/06 01:21:20;;;;;;;6.05;5.32;;;;;;;;;;6224026;23;20201;-84
2021/03/06 01:23:48;;;;;;;7.90;4.70;;;;;;;;;;6229473;23;20205;-82
2021/03/06 01:26:18;;;;;;;8.35;4.75;;;;;;;;;;6223587;23;20151;-81
2021/03/06 01:28:44;;;;;;;7.10;5.13;;;;;;;;;;6221151;23;20471;-81
2021/03/06 01:31:13;;;;;;;6.03;5.25;;;;;;;;;;6219810;23;20139;-82
2021/03/06 01:33:42;;;;;;;6.20;5.60;;;;;;;;;;6221196;23;20182;-83
2021/03/06 01:36:11;;;;;;;5.97;5.50;;;;;;;;;;6223525;23;20434;-83
2021/03/06 01:38:37;;;;;;;8.52;5.90;;;;;;;;;;6222222;23;20492;-82
2021/03/06 01:41:07;;;;;;;10.30;6.00;;;;;;;;;;6228342;23;20204;-79
2021/03/06 01:43:33;;;;;;;5.32;4.28;;;;;;;;;;6223948;23;20170;-83
2021/03/06 01:45:59;;;;;;;5.35;4.43;;;;;;;;;;6224200;23;20162;-83
2021/03/06 01:48:25;;;;;;;10.88;7.35;;;;;;;;;;6257074;23;20182;-83
2021/03/06 01:50:52;;;;;;;9.20;6.28;;;;;;;;;;6243657;23;20161;-81
2021/03/06 01:53:19;;;;;;;7.05;5.60;;;;;;;;;;6242802;23;20162;-82
2021/03/06 01:55:47;;;;;;;6.40;5.85;;;;;;;;;;6243981;23;20191;-82
2021/03/06 01:58:14;;;;;;;5.75;4.72;;;;;;;;;;6229159;23;20135;-83
2021/03/06 02:00:41;;;;;;;5.95;5.25;;;;;;;;;;6226603;23;20206;-84
2021/03/06 02:03:17;;;;;;;;;;;;;;;;;;;;;
2021/03/06 02:05:54;;;;;;;13.68;5.28;;;;;;;;;;6225191;23;20173;-84
2021/03/06 02:08:20;;;;;;;4.55;4.15;;;;;;;;;;6223160;23;20535;-84
2021/03/06 02:10:48;;;;;;;5.32;4.82;;;;;;;;;;6231805;23;20142;-82
2021/03/06 02:13:33;;;;;;;5.25;4.53;;;;;;;;;;6231976;23;20201;-80
2021/03/06 02:16:22;;;;;;;6.18;4.53;;;;;;;;;;6234706;23;20147;-79
2021/03/06 02:19:06;;;;;;;5.97;4.53;;;;;;;;;;6234072;23;20143;-80
2021/03/06 02:21:56;;;;;;;7.47;5.18;;;;;;;;;;6233954;23;20310;-82
2021/03/06 02:24:34;;;;;;;4.57;4.10;;;;;;;;;;6232691;23;20172;-79
2021/03/06 02:27:19;;;;;;;5.82;5.28;;;;;;;;;;6238000;23;20174;-81
2021/03/06 02:29:45;;;;;;;10.93;6.55;;;;;;;;;;6211821;23;20146;-80
2021/03/06 02:32:11;;;;;;;7.68;5.70;;;;;;;;;;6239174;23;20150;-82
2021/03/06 02:34:38;;;;;;;7.57;5.50;;;;;;;;;;6240124;23;20158;-81
2021/03/06 02:37:06;;;;;;;5.03;4.60;;;;;;;;;;6244326;23;20375;-80
2021/03/06 02:39:34;;;;;;;5.28;4.30;;;;;;;;;;6244169;23;20193;-80
2021/03/06 02:42:00;;;;;;;9.55;5.68;;;;;;;;;;6242954;23;20243;-78
2021/03/06 02:44:28;;;;;;;7.03;4.55;;;;;;;;;;6237957;23;20162;-82
2021/03/06 02:46:55;;;;;;;7.40;5.10;;;;;;;;;;6233701;23;20134;-79
2021/03/06 02:49:21;;;;;;;5.07;4.05;;;;;;;;;;6240765;23;20146;-82
2021/03/06 02:51:48;;;;;;;4.90;4.40;;;;;;;;;;6237100;23;20190;-78
2021/03/06 02:54:15;;;;;;;5.45;3.75;;;;;;;;;;6240332;23;20174;-82
2021/03/06 02:56:41;;;;;;;8.80;5.38;;;;;;;;;;6235629;23;20199;-79
2021/03/06 02:59:07;;;;;;;7.47;4.30;;;;;;;;;;6234099;23;20135;-82
2021/03/06 03:01:37;;;;;;;8.93;5.15;;;;;;;;;;6224395;23;20420;-82
2021/03/06 03:04:26;;;;;;;6.65;5.00;;;;;;;;;;6222910;23;20212;-82
2021/03/06 03:07:08;;;;;;;6.15;5.20;;;;;;;;;;6210282;23;20635;-82
2021/03/06 03:09:35;;;;;;;5.85;4.43;;;;;;;;;;6223210;23;20174;-82
2021/03/06 03:12:05;;;;;;;10.00;6.45;;;;;;;;;;6225590;23;20615;-81
2021/03/06 03:14:34;;;;;;;8.98;5.60;;;;;;;;;;6223932;23;20173;-81
2021/03/06 03:17:02;;;;;;;4.50;4.10;;;;;;;;;;6223995;23;20178;-83
2021/03/06 03:19:32;;;;;;;5.28;4.57;;;;;;;;;;6228718;23;20166;-84
2021/03/06 03:22:00;;;;;;;9.70;4.80;;;;;;;;;;6226804;23;20226;-80
2021/03/06 03:24:29;;;;;;;5.32;3.90;;;;;;;;;;6229153;23;20169;-82
2021/03/06 03:26:56;;;;;;;6.15;5.65;;;;;;;;;;6228611;23;20150;-81
2021/03/06 03:29:23;;;;;;;4.68;4.35;;;;;;;;;;6244640;23;20198;-82
2021/03/06 03:31:49;;;;;;;6.53;5.03;;;;;;;;;;6244835;23;20134;-81
2021/03/06 03:34:17;;;;;;;12.18;3.92;;;;;;;;;;6244485;23;20167;-82
2021/03/06 03:36:45;;;;;;;4.80;4.28;;;;;;;;;;6232911;23;20147;-83
2021/03/06 03:39:12;;;;;;;3.72;3.42;;;;;;;;;;6222268;23;20147;-82
2021/03/06 03:41:38;;;;;;;5.47;4.78;;;;;;;;;;6222150;23;20204;-83
2021/03/06 03:44:05;;;;;;;9.27;5.38;;;;;;;;;;6227112;22;20244;-83
2021/03/06 03:46:34;;;;;;;7.10;5.15;;;;;;;;;;6253173;23;20160;-84
2021/03/06 03:49:03;;;;;;;6.53;5.93;;;;;;;;;;6253036;23;20153;-81
2021/03/06 03:51:30;;;;;;;5.30;4.45;;;;;;;;;;6253197;23;20138;-81
2021/03/06 03:53:56;;;;;;;7.82;4.15;;;;;;;;;;6200597;23;20501;-82
2021/03/06 03:56:22;;;;;;;3.72;3.42;;;;;;;;;;6253394;23;20150;-82
2021/03/06 03:58:49;;;;;;;7.97;3.92;;;;;;;;;;6225792;23;20149;-83
2021/03/06 04:01:15;;;;;;;4.57;4.18;;;;;;;;;;6225453;23;20182;-81
2021/03/06 04:03:41;;;;;;;5.60;5.13;;;;;;;;;;6226454;23;20162;-82
2021/03/06 04:06:07;;;;;;;7.97;4.03;;;;;;;;;;6227107;23;20517;-81
2021/03/06 04:08:34;;;;;;;6.22;4.70;;;;;;;;;;6228204;23;20227;-82
2021/03/06 04:11:00;;;;;;;5.35;4.53;;;;;;;;;;6254958;23;20584;-80
2021/03/06 04:13:26;;;;;;;6.45;4.18;;;;;;;;;;6252878;22;20170;-82
2021/03/06 04:15:53;;;;;;;5.47;4.03;;;;;;;;;;6225166;23;20142;-80
2021/03/06 04:18:19;;;;;;;7.35;4.50;;;;;;;;;;6251705;23;20168;-81
2021/03/06 04:20:45;;;;;;;5.38;3.80;;;;;;;;;;6251414;23;20176;-81
2021/03/06 04:23:11;;;;;;;5.95;5.35;;;;;;;;;;6225055;23;20168;-81
2021/03/06 04:25:37;;;;;;;4.82;4.38;;;;;;;;;;6251764;23;20166;-81
2021/03/06 04:28:03;;;;;;;4.88;4.45;;;;;;;;;;6225345;23;20138;-80
2021/03/06 04:30:29;;;;;;;5.57;4.38;;;;;;;;;;6225322;23;20146;-80
2021/03/06 04:32:55;;;;;;;5.47;4.82;;;;;;;;;;6261420;22;20169;-82
2021/03/06 04:35:21;;;;;;;5.25;4.85;;;;;;;;;;6229178;23;20555;-81
2021/03/06 04:37:47;;;;;;;4.53;3.90;;;;;;;;;;6251606;23;20200;-81
2021/03/06 04:40:14;;;;;;;5.75;4.55;;;;;;;;;;6225016;23;20170;-81
2021/03/06 04:42:40;;;;;;;6.88;4.72;;;;;;;;;;6225357;22;20143;-82
2021/03/06 04:45:07;;;;;;;6.03;4.40;;;;;;;;;;6251937;23;20228;-81
2021/03/06 04:47:33;;;;;;;5.03;4.63;;;;;;;;;;6225216;23;20144;-82
2021/03/06 04:49:59;;;;;;;5.35;4.18;;;;;;;;;;6224078;23;20146;-82
2021/03/06 04:52:25;;;;;;;4.20;3.88;;;;;;;;;;6251415;23;20142;-82
2021/03/06 04:54:51;;;;;;;8.95;4.30;;;;;;;;;;6226156;23;20189;-81
2021/03/06 04:57:17;;;;;;;8.23;4.55;;;;;;;;;;6227647;23;20188;-83
2021/03/06 04:59:44;;;;;;;8.45;4.65;;;;;;;;;;6226716;23;20459;-82
2021/03/06 05:02:10;;;;;;;10.10;4.78;;;;;;;;;;6226284;23;20181;-82
2021/03/06 05:04:36;;;;;;;8.40;4.50;;;;;;;;;;6227284;23;20642;-82
2021/03/06 05:07:02;;;;;;;4.03;3.53;;;;;;;;;;6254438;23;20584;-82
2021/03/06 05:09:28;;;;;;;7.13;5.72;;;;;;;;;;6210949;23;20160;-82
2021/03/06 05:11:55;;;;;;;5.10;4.68;;;;;;;;;;6225772;23;20288;-80
2021/03/06 05:14:21;;;;;;;4.82;3.05;;;;;;;;;;6207255;23;20174;-79
2021/03/06 05:16:47;;;;;;;7.25;4.82;;;;;;;;;;6267939;23;20150;-82
2021/03/06 05:19:13;;;;;;;9.20;3.92;;;;;;;;;;6255499;23;20152;-82
2021/03/06 05:21:39;;;;;;;7.88;4.30;;;;;;;;;;6241105;23;20162;-80
2021/03/06 05:24:06;;;;;;;4.65;3.90;;;;;;;;;;6236864;23;20623;-82
2021/03/06 05:26:32;;;;;;;7.90;3.80;;;;;;;;;;6233684;23;20149;-82
2021/03/06 05:28:58;;;;;;;4.30;3.85;;;;;;;;;;6256586;23;20150;-82
2021/03/06 05:31:24;;;;;;;5.00;3.55;;;;;;;;;;6256825;23;20142;-81
2021/03/06 05:33:50;;;;;;;6.25;4.22;;;;;;;;;;6227755;23;20166;-81
2021/03/06 05:36:16;;;;;;;5.80;4.10;;;;;;;;;;6226100;23;20146;-81
2021/03/06 05:38:42;;;;;;;7.30;5.20;;;;;;;;;;6225293;23;20154;-82
2021/03/06 05:41:08;;;;;;;7.13;4.80;;;;;;;;;;6199329;23;20178;-81
2021/03/06 05:43:35;;;;;;;7.47;5.10;;;;;;;;;;6252349;22;20225;-81
2021/03/06 05:46:01;;;;;;;7.05;4.18;;;;;;;;;;6224703;23;20146;-81
2021/03/06 05:48:28;;;;;;;14.55;5.28;;;;;;;;;;6251215;23;20141;-81
2021/03/06 05:50:54;;;;;;;5.75;5.00;;;;;;;;;;6251090;23;20173;-80
2021/03/06 05:53:21;;;;;;;5.22;4.65;;;;;;;;;;6200336;23;20269;-82
2021/03/06 05:55:51;;;;;;;7.03;4.75;;;;;;;;;;6252232;23;20161;-81
2021/03/06 05:58:18;;;;;;;5.90;4.03;;;;;;;;;;6232170;23;20142;-80
2021/03/06 06:00:44;;;;;;;8.88;5.05;;;;;;;;;;6267591;23;20247;-82
2021/03/06 06:03:11;;;;;;;6.47;5.95;;;;;;;;;;6224511;23;20226;-81
2021/03/06 06:05:37;;;;;;;5.90;5.32;;;;;;;;;;6224882;23;20150;-81
2021/03/06 06:08:04;;;;;;;5.15;4.40;;;;;;;;;;6250997;23;20230;-81
2021/03/06 06:10:31;;;;;;;7.30;4.43;;;;;;;;;;6227664;23;20221;-81
2021/03/06 06:12:58;;;;;;;5.72;4.70;;;;;;;;;;6227485;23;20592;-82
2021/03/06 06:15:24;;;;;;;7.03;6.28;;;;;;;;;;6224481;23;20221;-82
2021/03/06 06:17:50;;;;;;;7.25;5.70;;;;;;;;;;6224123;23;20142;-81
2021/03/06 06:20:16;;;;;;;10.57;5.15;;;;;;;;;;6224744;23;20200;-80
2021/03/06 06:22:43;;;;;;;5.07;4.00;;;;;;;;;;6252624;22;20173;-81
2021/03/06 06:25:09;;;;;;;4.63;4.10;;;;;;;;;;6251858;23;20150;-81
2021/03/06 06:27:35;;;;;;;8.60;3.90;;;;;;;;;;6224855;23;20176;-83
2021/03/06 06:30:03;;;;;;;8.27;4.10;;;;;;;;;;6225887;23;20138;-82
2021/03/06 06:32:43;;;;;;;12.68;4.07;;;;;;;;;;6228581;23;20517;-80
2021/03/06 06:35:10;;;;;;;4.88;4.40;;;;;;;;;;6225437;23;20467;-83
2021/03/06 06:37:36;;;;;;;4.55;3.97;;;;;;;;;;6225209;23;20177;-83
2021/03/06 06:40:15;;;;;;;6.13;3.50;;;;;;;;;;6252083;23;20150;-83
2021/03/06 06:42:41;;;;;;;4.57;4.05;;;;;;;;;;6226943;22;20184;-83
2021/03/06 06:45:08;;;;;;;5.07;3.97;;;;;;;;;;6260920;23;20142;-83
2021/03/06 06:47:43;;;;;;;14.52;5.28;;;;;;;;;;6265281;23;20150;-81
2021/03/06 06:50:11;;;;;;;4.88;3.63;;;;;;;;;;6266136;23;20134;-81
2021/03/06 06:52:38;;;;;;;6.60;3.05;;;;;;;;;;6255648;22;20154;-81
2021/03/06 06:55:05;;;;;;;6.75;3.75;;;;;;;;;;6251541;23;20138;-83
2021/03/06 06:57:32;;;;;;;7.57;3.92;;;;;;;;;;6229135;23;20150;-81
2021/03/06 06:59:59;;;;;;;7.72;3.78;;;;;;;;;;6200578;23;20146;-83
2021/03/06 07:02:26;;;;;;;3.92;3.53;;;;;;;;;;6253080;23;20579;-80
2021/03/06 07:04:52;;;;;;;4.40;3.90;;;;;;;;;;6255023;22;20162;-80
2021/03/06 07:07:18;;;;;;;5.07;4.57;;;;;;;;;;6224314;23;20141;-82
2021/03/06 07:09:58;;;;;;;8.48;4.28;;;;;;;;;;6225249;23;20143;-81
2021/03/06 07:12:24;;;;;;;5.20;3.97;;;;;;;;;;6250652;23;20146;-81
2021/03/06 07:14:51;;;;;;;7.85;4.88;;;;;;;;;;6199714;23;20189;-80
2021/03/06 07:17:17;;;;;;;8.25;3.75;;;;;;;;;;6224321;23;20164;-81
2021/03/06 07:19:43;;;;;;;7.57;3.22;;;;;;;;;;6225632;23;20233;-82
2021/03/06 07:22:09;;;;;;;4.13;3.60;;;;;;;;;;6252954;23;20248;-82
2021/03/06 07:24:35;;;;;;;7.05;3.70;;;;;;;;;;6253170;22;20162;-83
2021/03/06 07:27:01;;;;;;;3.60;2.97;;;;;;;;;;6226582;23;20142;-80
2021/03/06 07:29:29;;;;;;;11.73;4.50;;;;;;;;;;6226595;23;20146;-83
2021/03/06 07:31:56;;;;;;;4.47;4.07;;;;;;;;;;6252445;23;20149;-80
2021/03/06 07:34:23;;;;;;;4.13;3.05;;;;;;;;;;6253882;22;20166;-82
2021/03/06 07:36:49;;;;;;;5.57;3.28;;;;;;;;;;6253213;23;20146;-81
2021/03/06 07:39:16;;;;;;;4.28;2.78;;;;;;;;;;6226818;23;20184;-82
2021/03/06 07:41:48;;;;;;;7.05;4.80;;;;;;;;;;6252126;23;20170;-81
2021/03/06 07:44:17;;;;;;;5.85;3.13;;;;;;;;;;6242610;23;20208;-82
2021/03/06 07:46:43;;;;;;;8.88;4.20;;;;;;;;;;6257549;23;20142;-79
2021/03/06 07:49:13;;;;;;;5.03;4.17;;;;;;;;;;6254651;23;20149;-83
2021/03/06 07:51:43;;;;;;;6.78;3.65;;;;;;;;;;6253418;23;20380;-83
2021/03/06 07:54:14;;;;;;;5.95;4.95;;;;;;;;;;6250515;22;20170;-81
2021/03/06 07:56:41;;;;;;;10.43;5.15;;;;;;;;;;6225774;23;20477;-84
2021/03/06 07:59:07;;;;;;;4.68;2.30;;;;;;;;;;6250162;23;20141;-82
2021/03/06 08:01:34;;;;;;;10.32;3.70;;;;;;;;;;6250343;23;20178;-80
2021/03/06 08:04:01;;;;;;;5.75;3.47;;;;;;;;;;6250730;22;20619;-81
2021/03/06 08:06:36;;;;;;;7.72;3.20;;;;;;;;;;6225801;23;20138;-82
2021/03/06 08:09:03;;;;;;;8.27;3.60;;;;;;;;;;6252655;23;20134;-82
2021/03/06 08:11:37;;;;;;;5.15;3.75;;;;;;;;;;6251900;23;20191;-82
2021/03/06 08:14:06;;;;;;;12.48;3.83;;;;;;;;;;6253092;22;20632;-80
2021/03/06 08:16:32;;;;;;;3.67;3.15;;;;;;;;;;6251527;23;20237;-82
2021/03/06 08:18:59;;;;;;;13.27;3.30;;;;;;;;;;6253186;23;20169;-84
2021/03/06 08:21:32;;;;;;;4.35;3.15;;;;;;;;;;6254681;23;20177;-81
2021/03/06 08:26:40;;;;;;;5.28;2.80;;;;;;;;;;6259072;23;20126;-82
2021/03/06 08:29:22;;;;;;;13.63;3.97;;;;;;;;;;6259845;23;20135;-81
2021/03/06 08:32:07;;;;;;;5.70;3.35;;;;;;;;;;6254150;22;20176;-81
2021/03/06 08:34:46;;;;;;;9.80;4.28;;;;;;;;;;6252528;22;20174;-81
2021/03/06 08:37:15;;;;;;;5.50;3.03;;;;;;;;;;6253122;23;20144;-80
2021/03/06 08:39:41;;;;;;;7.05;4.10;;;;;;;;;;6253529;23;20208;-80
2021/03/06 08:42:07;;;;;;;3.80;3.30;;;;;;;;;;6253392;23;20169;-81
2021/03/06 08:44:34;;;;;;;11.30;4.30;;;;;;;;;;6257757;22;20750;-82
2021/03/06 08:47:00;;;;;;;12.02;4.45;;;;;;;;;;6233293;23;20233;-81
2021/03/06 08:49:27;;;;;;;5.65;3.45;;;;;;;;;;6261447;23;20138;-80
2021/03/06 08:51:54;;;;;;;5.57;3.95;;;;;;;;;;6254538;23;20303;-82
2021/03/06 08:54:40;;;;;;;5.30;3.83;;;;;;;;;;6256838;22;20184;-82
2021/03/06 08:57:06;;;;;;;9.45;3.65;;;;;;;;;;6259838;23;20153;-78
2021/03/06 08:59:42;;;;;;;10.70;4.07;;;;;;;;;;6256582;23;20452;-81
2021/03/06 09:02:15;;;;;;;3.53;2.50;;;;;;;;;;6233845;23;20220;-81
2021/03/06 09:04:41;;;;;;;8.20;3.67;;;;;;;;;;6259508;22;20249;-81
2021/03/06 09:07:26;;;;;;;13.63;6.85;;;;;;;;;;6254916;23;20188;-81
2021/03/06 09:09:52;;;;;;;7.38;5.10;;;;;;;;;;6265918;23;20167;-82
2021/03/06 09:12:18;;;;;;;13.70;2.78;;;;;;;;;;6262793;23;20153;-82
2021/03/06 09:14:44;;;;;;;6.63;3.40;;;;;;;;;;6254576;22;20177;-80
2021/03/06 09:17:13;;;;;;;3.47;3.05;;;;;;;;;;6258167;23;20146;-80
2021/03/06 09:19:40;;;;;;;10.15;5.18;;;;;;;;;;6231705;23;20150;-81
2021/03/06 09:22:07;;;;;;;4.40;2.85;;;;;;;;;;6264579;23;20170;-81
2021/03/06 09:24:47;;;;;;;8.15;3.88;;;;;;;;;;6260904;22;20169;-82
2021/03/06 09:27:15;;;;;;;4.10;2.70;;;;;;;;;;6259733;23;20142;-81
2021/03/06 09:29:42;;;;;;;4.80;3.47;;;;;;;;;;6252245;23;20134;-82
2021/03/06 09:32:08;;;;;;;5.43;4.30;;;;;;;;;;6255409;23;20192;-82
2021/03/06 09:34:34;;;;;;;12.00;3.85;;;;;;;;;;6255717;22;20234;-81
2021/03/06 09:37:16;;;;;;;4.20;3.00;;;;;;;;;;6257495;22;20579;-84
2021/03/06 09:39:42;;;;;;;5.80;2.75;;;;;;;;;;6256392;23;20491;-81
2021/03/06 09:42:08;;;;;;;15.73;2.58;;;;;;;;;;6258454;23;20177;-81
2021/03/06 09:44:38;;;;;;;7.80;3.70;;;;;;;;;;6283980;22;20237;-82
2021/03/06 09:47:07;;;;;;;7.93;6.18;;;;;;;;;;6275886;22;20153;-84
2021/03/06 09:49:33;;;;;;;3.85;3.50;;;;;;;;;;6302983;22;20205;-83
2021/03/06 09:52:02;;;;;;;5.32;3.83;;;;;;;;;;6303646;22;20149;-83
2021/03/06 09:54:34;;;;;;;4.70;2.92;;;;;;;;;;6277793;22;20288;-83
2021/03/06 09:57:02;;;;;;;5.18;3.05;;;;;;;;;;6278110;22;20125;-83
2021/03/06 09:59:36;;;;;;;3.80;2.65;;;;;;;;;;6277448;22;20149;-82
2021/03/06 10:02:12;;;;;;;4.07;3.10;;;;;;;;;;6276927;22;20169;-83
2021/03/06 10:04:38;;;;;;;3.50;2.47;;;;;;;;;;6303326;22;20180;-83
2021/03/06 10:07:08;;;;;;;5.15;3.35;;;;;;;;;;6302500;22;20182;-83
2021/03/06 10:09:35;;;;;;;6.35;2.95;;;;;;;;;;6300116;22;20156;-82
2021/03/06 10:12:05;;;;;;;7.32;3.22;;;;;;;;;;6275512;22;20141;-83
2021/03/06 10:14:32;;;;;;;2.80;2.60;;;;;;;;;;6302270;22;20215;-83
2021/03/06 10:16:59;;;;;;;3.47;2.70;;;;;;;;;;6274886;22;20164;-83
2021/03/06 10:19:26;;;;;;;6.65;3.05;;;;;;;;;;6288303;22;20220;-83
2021/03/06 10:21:59;;;;;;;5.43;3.30;;;;;;;;;;6287204;22;20234;-83
2021/03/06 10:24:25;;;;;;;5.03;3.30;;;;;;;;;;6288438;22;20525;-83
2021/03/06 10:26:58;;;;;;;4.22;3.15;;;;;;;;;;6234466;22;20137;-84
2021/03/06 10:29:25;;;;;;;6.82;3.22;;;;;;;;;;6288251;22;20152;-84
2021/03/06 10:32:00;;;;;;;4.38;2.72;;;;;;;;;;6286639;22;20141;-82
2021/03/06 10:34:27;;;;;;;6.43;3.47;;;;;;;;;;6233218;22;20173;-83
2021/03/06 10:37:10;;;;;;;4.68;3.20;;;;;;;;;;6286207;22;20161;-83
2021/03/06 10:39:55;;;;;;;4.20;2.67;;;;;;;;;;6259441;22;20217;-83
2021/03/06 10:42:22;;;;;;;5.25;3.13;;;;;;;;;;6258569;22;20181;-82
2021/03/06 10:44:48;;;;;;;4.97;2.30;;;;;;;;;;6286915;22;20184;-83
2021/03/06 10:47:17;;;;;;;7.68;2.47;;;;;;;;;;6236250;22;20153;-83
2021/03/06 10:49:44;;;;;;;10.10;5.10;;;;;;;;;;6261763;22;20145;-83
2021/03/06 10:52:29;;;;;;;4.30;3.90;;;;;;;;;;6236634;22;20152;-84
2021/03/06 10:54:59;;;;;;;4.00;3.25;;;;;;;;;;6289949;22;20172;-85
2021/03/06 10:57:25;;;;;;;2.83;2.53;;;;;;;;;;6289868;22;20669;-84
2021/03/06 10:59:52;;;;;;;3.38;2.70;;;;;;;;;;6289138;22;20137;-83
2021/03/06 11:02:28;;;;;;;4.68;3.55;;;;;;;;;;6289353;22;20169;-84
2021/03/06 11:04:55;;;;;;;6.15;4.55;;;;;;;;;;6289582;22;20242;-83
2021/03/06 11:07:28;;;;;;;4.85;4.18;;;;;;;;;;6262384;22;20149;-83
2021/03/06 11:09:58;;;;;;;5.93;3.60;;;;;;;;;;6290673;22;20138;-83
2021/03/06 11:12:28;;;;;;;9.85;4.07;;;;;;;;;;6262960;22;20137;-84
2021/03/06 11:15:24;;;;;;;6.68;3.38;;;;;;;;;;6262495;22;20161;-82
2021/03/06 11:17:55;;;;;;;6.55;5.15;;;;;;;;;;6248402;22;20149;-83
2021/03/06 11:20:22;;;;;;;4.60;4.18;;;;;;;;;;6237525;22;20275;-84
2021/03/06 11:22:52;;;;;;;14.90;4.30;;;;;;;;;;6292169;22;20145;-84
2021/03/06 11:25:18;;;;;;;8.00;4.10;;;;;;;;;;6264004;22;20177;-83
2021/03/06 11:27:45;;;;;;;7.47;4.63;;;;;;;;;;6291092;22;20196;-84
2021/03/06 11:30:13;;;;;;;6.00;4.05;;;;;;;;;;6292898;22;20164;-83
2021/03/06 11:32:39;;;;;;;6.60;5.07;;;;;;;;;;6293524;22;20133;-84
2021/03/06 11:35:19;;;;;;;6.43;5.25;;;;;;;;;;6295432;22;20225;-84
2021/03/06 11:37:45;;;;;;;5.65;5.15;;;;;;;;;;6298914;22;20125;-84
2021/03/06 11:40:16;;;;;;;7.47;5.20;;;;;;;;;;6295366;22;20129;-84
2021/03/06 11:42:46;;;;;;;8.85;7.40;;;;;;;;;;6269599;22;20146;-85
2021/03/06 11:45:13;;;;;;;7.18;5.00;;;;;;;;;;6296861;22;20193;-84
2021/03/06 11:47:39;;;;;;;8.38;5.97;;;;;;;;;;6297100;22;20142;-83
2021/03/06 11:50:07;;;;;;;6.10;5.50;;;;;;;;;;6246033;22;20149;-83
2021/03/06 11:52:34;;;;;;;11.45;8.90;;;;;;;;;;6295837;22;20134;-83
2021/03/06 11:55:00;;;;;;;5.30;4.80;;;;;;;;;;6264345;22;20173;-84
2021/03/06 11:57:26;;;;;;;6.03;4.80;;;;;;;;;;6289149;22;20228;-84
2021/03/06 11:59:53;;;;;;;8.57;5.53;;;;;;;;;;6288807;22;20188;-85
2021/03/06 12:02:19;;;;;;;7.85;3.75;;;;;;;;;;6288899;22;20169;-83
2021/03/06 12:04:46;;;;;;;6.20;4.45;;;;;;;;;;6261132;22;20173;-83
2021/03/06 12:07:12;;;;;;;9.80;4.85;;;;;;;;;;6235867;22;20161;-83
2021/03/06 12:09:38;;;;;;;5.88;4.45;;;;;;;;;;6288919;22;20149;-84
2021/03/06 12:12:07;;;;;;;8.05;5.70;;;;;;;;;;6262716;22;20299;-82
2021/03/06 12:14:34;;;;;;;6.13;5.57;;;;;;;;;;6262429;22;20171;-83
2021/03/06 12:17:03;;;;;;;13.50;5.95;;;;;;;;;;6289575;22;20145;-84
2021/03/06 12:19:29;;;;;;;8.52;4.50;;;;;;;;;;6260584;22;20198;-83
2021/03/06 12:21:55;;;;;;;7.38;5.95;;;;;;;;;;6290013;22;20169;-83
2021/03/06 12:24:21;;;;;;;6.32;5.53;;;;;;;;;;6288512;22;20480;-84
2021/03/06 12:26:47;;;;;;;9.27;5.35;;;;;;;;;;6262338;22;20141;-83
2021/03/06 12:29:14;;;;;;;5.68;4.15;;;;;;;;;;6290009;22;20195;-83
2021/03/06 12:31:41;;;;;;;7.15;5.35;;;;;;;;;;6289383;22;20129;-84
2021/03/06 12:34:07;;;;;;;7.72;6.28;;;;;;;;;;6291212;22;20161;-83
2021/03/06 12:36:34;;;;;;;7.30;5.22;;;;;;;;;;6267028;22;20208;-83
2021/03/06 12:39:00;;;;;;;9.45;7.55;;;;;;;;;;6266654;22;20199;-83
2021/03/06 12:41:26;;;;;;;5.68;5.20;;;;;;;;;;6265581;22;20173;-84
2021/03/06 12:43:52;;;;;;;7.20;6.45;;;;;;;;;;6262341;22;20182;-84
2021/03/06 12:46:18;;;;;;;6.97;5.68;;;;;;;;;;6259600;23;20172;-83
2021/03/06 12:48:44;;;;;;;8.50;5.00;;;;;;;;;;6261649;22;20165;-83
2021/03/06 12:51:10;;;;;;;8.43;5.40;;;;;;;;;;6264841;23;20149;-83
2021/03/06 12:53:37;;;;;;;6.07;5.43;;;;;;;;;;6269098;22;20170;-83
2021/03/06 12:56:06;;;;;;;8.32;5.45;;;;;;;;;;6269490;23;20157;-83
2021/03/06 12:58:32;;;;;;;7.57;6.30;;;;;;;;;;6271487;22;20153;-83
2021/03/06 13:00:58;;;;;;;6.40;5.80;;;;;;;;;;6271184;23;20158;-82
2021/03/06 13:03:25;;;;;;;6.80;6.07;;;;;;;;;;6270636;22;20142;-83
2021/03/06 13:06:07;;;;;;;6.50;5.30;;;;;;;;;;6272046;22;20131;-82
2021/03/06 13:08:33;;;;;;;7.10;4.45;;;;;;;;;;6265837;23;20150;-83
2021/03/06 13:10:59;;;;;;;8.35;5.75;;;;;;;;;;6263644;23;20149;-84
2021/03/06 13:13:36;;;;;;;6.28;4.40;;;;;;;;;;6236898;22;20148;-87
2021/03/06 13:16:02;;;;;;;6.85;5.30;;;;;;;;;;6237132;23;20198;-83
2021/03/06 13:18:28;;;;;;;8.20;5.80;;;;;;;;;;6235706;23;20665;-83
2021/03/06 13:20:55;;;;;;;5.55;5.05;;;;;;;;;;6260965;23;20182;-83
2021/03/06 13:23:23;;;;;;;5.45;4.88;;;;;;;;;;6261701;22;20145;-83
2021/03/06 13:25:51;;;;;;;7.28;4.60;;;;;;;;;;6261940;23;20437;-84
2021/03/06 13:28:17;;;;;;;5.85;5.35;;;;;;;;;;6234853;23;20142;-83
2021/03/06 13:30:43;;;;;;;6.35;5.18;;;;;;;;;;6234733;23;20154;-84
2021/03/06 13:33:09;;;;;;;8.27;5.03;;;;;;;;;;6259862;22;20141;-83
2021/03/06 13:35:35;;;;;;;7.28;3.42;;;;;;;;;;6260393;23;20157;-84
2021/03/06 13:38:01;;;;;;;7.30;5.90;;;;;;;;;;6259986;23;20130;-84
2021/03/06 13:40:28;;;;;;;5.60;3.97;;;;;;;;;;6232976;23;20185;-83
2021/03/06 13:42:54;;;;;;;5.35;4.82;;;;;;;;;;6260684;23;20149;-83
2021/03/06 13:45:20;;;;;;;5.47;4.95;;;;;;;;;;6288575;22;20232;-83
2021/03/06 13:47:47;;;;;;;5.82;5.10;;;;;;;;;;6243906;22;20141;-84
2021/03/06 13:50:14;;;;;;;9.13;5.53;;;;;;;;;;6266314;22;20161;-83
2021/03/06 13:52:40;;;;;;;6.25;5.75;;;;;;;;;;6265468;22;20146;-84
2021/03/06 13:55:08;;;;;;;4.97;4.43;;;;;;;;;;6290816;22;20555;-84
2021/03/06 13:57:34;;;;;;;6.15;4.45;;;;;;;;;;6243236;22;20203;-84
2021/03/06 14:00:00;;;;;;;8.43;5.00;;;;;;;;;;6242765;22;20222;-83
2021/03/06 14:02:27;;;;;;;6.95;4.47;;;;;;;;;;6293461;22;20152;-84
2021/03/06 14:04:53;;;;;;;7.90;5.68;;;;;;;;;;6264654;22;20239;-83
2021/03/06 14:07:19;;;;;;;4.85;4.28;;;;;;;;;;6291567;22;20167;-83
2021/03/06 14:09:45;;;;;;;10.13;7.03;;;;;;;;;;6266288;22;20149;-85
2021/03/06 14:12:11;;;;;;;8.60;6.20;;;;;;;;;;6266550;22;20146;-84
2021/03/06 14:14:37;;;;;;;6.10;5.50;;;;;;;;;;6265173;22;20165;-84
2021/03/06 14:17:03;;;;;;;10.60;5.25;;;;;;;;;;6263234;22;20145;-83
2021/03/06 14:19:29;;;;;;;5.80;4.88;;;;;;;;;;6264058;22;20146;-83
2021/03/06 14:22:06;;;;;;;;;;;;;;;;;;;;;
2021/03/06 14:24:32;;;;;;;5.07;4.57;;;;;;;;;;6289944;22;20180;-83
2021/03/06 14:26:58;;;;;;;6.65;4.70;;;;;;;;;;6291505;22;20141;-84
2021/03/06 14:29:27;;;;;;;6.30;5.80;;;;;;;;;;6289658;22;20141;-84
2021/03/06 14:31:53;;;;;;;5.30;4.57;;;;;;;;;;6264676;22;20145;-83
2021/03/06 14:34:19;;;;;;;7.40;3.67;;;;;;;;;;6264601;22;20169;-84
2021/03/06 14:36:45;;;;;;;4.70;3.60;;;;;;;;;;6290843;22;20150;-84
2021/03/06 14:39:12;;;;;;;5.00;4.60;;;;;;;;;;6292278;22;20141;-83
2021/03/06 14:41:42;;;;;;;7.43;4.25;;;;;;;;;;6240555;22;20173;-83
2021/03/06 14:44:09;;;;;;;5.72;5.15;;;;;;;;;;6292346;22;20177;-84
2021/03/06 14:46:35;;;;;;;4.97;3.78;;;;;;;;;;6264337;22;20141;-84
2021/03/06 14:49:01;;;;;;;3.83;3.53;;;;;;;;;;6264497;22;20168;-84
2021/03/06 14:51:28;;;;;;;4.13;3.70;;;;;;;;;;6292733;22;20149;-83
2021/03/06 14:53:54;;;;;;;5.70;4.03;;;;;;;;;;6264938;22;20227;-83